Time;durP1;ratioP1;P1;durP2;ratioP2;P2;SDS_P1;SDS_P2;PMS_P1;PMS_P2;Temp;Humidity;BMP_temperature;BMP_pressure;BME280_temperature;BME280_humidity;BME280_pressure;Samples;Min_cycle;Max_cycle;Signal;HPM_P1;HPM_P2
2022/12/28 00:01:31;;;;;;;29.60;20.08;;;12.60;99.90;;;;;;5092943;28;20730;-77
2022/12/28 00:04:01;;;;;;;30.00;18.95;;;12.60;99.90;;;;;;5092692;28;20031;-77
2022/12/28 00:06:29;;;;;;;26.83;18.58;;;12.70;99.90;;;;;;5087460;28;20064;-77
2022/12/28 00:08:56;;;;;;;28.30;16.67;;;12.70;99.90;;;;;;5099549;28;20036;-77
2022/12/28 00:11:25;;;;;;;24.88;16.40;;;12.70;99.90;;;;;;5090425;28;20104;-77
2022/12/28 00:13:53;;;;;;;24.15;14.43;;;12.70;99.90;;;;;;5086374;28;20052;-78
2022/12/28 00:16:24;;;;;;;23.60;15.02;;;12.60;99.90;;;;;;5099343;28;20112;-78
2022/12/28 00:18:52;;;;;;;23.98;16.15;;;12.60;99.90;;;;;;5099538;28;20044;-78
2022/12/28 00:21:20;;;;;;;22.33;14.43;;;12.70;99.90;;;;;;5081427;28;20148;-77
2022/12/28 00:23:51;;;;;;;24.80;15.90;;;12.60;99.90;;;;;;5067993;28;20087;-77
2022/12/28 00:26:19;;;;;;;25.63;15.90;;;12.60;99.90;;;;;;5095861;28;20048;-77
2022/12/28 00:28:48;;;;;;;24.27;14.73;;;12.60;99.90;;;;;;5096536;28;20506;-78
2022/12/28 00:31:15;;;;;;;22.00;15.23;;;12.60;99.90;;;;;;5100786;28;20051;-77
2022/12/28 00:33:43;;;;;;;22.13;14.13;;;12.60;99.90;;;;;;5089558;28;20098;-76
2022/12/28 00:36:13;;;;;;;22.77;14.95;;;12.60;99.90;;;;;;5106254;28;20099;-77
2022/12/28 00:38:42;;;;;;;29.52;15.98;;;12.50;99.90;;;;;;5100542;28;20039;-77
2022/12/28 00:41:10;;;;;;;20.55;15.23;;;12.50;99.90;;;;;;5098587;28;20044;-77
2022/12/28 00:43:37;;;;;;;25.83;15.52;;;12.50;99.90;;;;;;5084727;28;20185;-77
2022/12/28 00:46:05;;;;;;;25.15;16.27;;;12.50;99.90;;;;;;5075953;28;20577;-77
2022/12/28 00:48:33;;;;;;;25.15;15.65;;;12.50;99.90;;;;;;5098836;28;20048;-77
2022/12/28 00:51:07;;;;;;;29.13;18.33;;;12.40;99.90;;;;;;5069843;28;20036;-77
2022/12/28 00:53:35;;;;;;;24.63;16.42;;;12.50;99.90;;;;;;5088117;28;20045;-77
2022/12/28 00:56:14;;;;;;;23.95;15.85;;;12.40;99.90;;;;;;5080563;28;20097;-77
2022/12/28 00:58:42;;;;;;;23.10;14.88;;;12.40;99.90;;;;;;5099164;28;20142;-77
2022/12/28 01:01:21;;;;;;;24.17;14.68;;;12.40;99.90;;;;;;5110375;28;20044;-77
2022/12/28 01:03:50;;;;;;;23.38;16.38;;;12.40;99.90;;;;;;5104844;28;20047;-77
2022/12/28 01:06:19;;;;;;;26.95;17.92;;;12.50;99.90;;;;;;5094093;28;20132;-79
2022/12/28 01:08:47;;;;;;;31.67;21.35;;;12.40;99.90;;;;;;5068644;28;20135;-77
2022/12/28 01:11:19;;;;;;;29.85;17.80;;;12.40;99.90;;;;;;5105670;28;20070;-77
2022/12/28 01:13:48;;;;;;;24.50;16.75;;;12.40;99.90;;;;;;5079510;28;20110;-77
2022/12/28 01:16:20;;;;;;;23.45;14.88;;;12.40;99.90;;;;;;5064756;28;20051;-77
2022/12/28 01:18:50;;;;;;;25.92;15.07;;;12.40;99.90;;;;;;5096676;28;20040;-77
2022/12/28 01:21:20;;;;;;;18.58;13.32;;;12.40;99.90;;;;;;5104762;28;20054;-77
2022/12/28 01:23:52;;;;;;;20.70;14.27;;;12.40;99.90;;;;;;5082916;28;20087;-77
2022/12/28 01:26:19;;;;;;;17.30;12.82;;;12.40;99.90;;;;;;5087164;28;20395;-77
2022/12/28 01:28:47;;;;;;;22.92;12.98;;;12.40;99.90;;;;;;5072231;28;20497;-77
2022/12/28 01:31:16;;;;;;;22.42;14.60;;;12.30;99.90;;;;;;5084974;28;20429;-77
2022/12/28 01:33:44;;;;;;;21.98;13.43;;;12.20;99.90;;;;;;5079912;28;20041;-77
2022/12/28 01:36:19;;;;;;;21.35;13.80;;;12.30;99.90;;;;;;5080015;28;20408;-77
2022/12/28 01:38:47;;;;;;;15.88;11.23;;;12.20;99.90;;;;;;5088144;28;20155;-77
2022/12/28 01:41:17;;;;;;;21.40;14.65;;;12.20;99.90;;;;;;5094282;28;20115;-77
2022/12/28 01:44:09;;;;;;;18.58;13.35;;;12.20;99.90;;;;;;5071212;28;20063;-76
2022/12/28 01:46:41;;;;;;;20.70;14.10;;;12.20;99.90;;;;;;5088406;28;20040;-76
2022/12/28 01:49:15;;;;;;;18.77;13.32;;;12.20;99.90;;;;;;5090426;28;20123;-76
2022/12/28 01:52:13;;;;;;;15.90;13.55;;;12.20;99.90;;;;;;5090149;28;20093;-76
2022/12/28 01:54:56;;;;;;;27.60;15.40;;;12.20;99.90;;;;;;5088906;28;20052;-75
2022/12/28 01:57:29;;;;;;;20.85;12.80;;;12.30;99.90;;;;;;5088332;28;20055;-76
2022/12/28 02:00:06;;;;;;;19.27;13.68;;;12.30;99.90;;;;;;5088331;28;20047;-76
2022/12/28 02:02:55;;;;;;;20.83;13.82;;;12.30;99.90;;;;;;5089061;28;20097;-76
2022/12/28 02:05:26;;;;;;;20.40;14.50;;;12.20;99.90;;;;;;5088516;28;20051;-76
2022/12/28 02:08:04;;;;;;;17.25;13.95;;;12.20;99.90;;;;;;5071110;28;20133;-76
2022/12/28 02:10:32;;;;;;;20.38;15.10;;;12.20;99.90;;;;;;5072536;28;20037;-76
2022/12/28 02:13:01;;;;;;;22.88;15.02;;;12.30;99.90;;;;;;5081283;28;20059;-76
2022/12/28 02:15:29;;;;;;;28.13;18.02;;;12.20;99.90;;;;;;5070623;28;20044;-76
2022/12/28 02:17:57;;;;;;;30.67;18.30;;;12.20;99.90;;;;;;5087478;28;20452;-76
2022/12/28 02:20:58;;;;;;;29.52;19.77;;;12.20;99.90;;;;;;5071276;28;20533;-76
2022/12/28 02:23:52;;;;;;;61.25;35.42;;;12.20;99.90;;;;;;5071280;28;20147;-76
2022/12/28 02:26:55;;;;;;;78.40;44.88;;;12.20;99.90;;;;;;5070600;28;20051;-76
2022/12/28 02:29:41;;;;;;;82.70;47.72;;;12.10;99.90;;;;;;5088156;28;20090;-75
2022/12/28 02:32:27;;;;;;;78.37;45.17;;;12.10;99.90;;;;;;5087924;28;20047;-76
2022/12/28 02:35:12;;;;;;;76.37;44.73;;;12.10;99.90;;;;;;5087596;28;20145;-76
2022/12/28 02:37:46;;;;;;;69.30;43.57;;;12.10;99.90;;;;;;5070893;28;20154;-76
2022/12/28 02:40:20;;;;;;;74.05;38.30;;;12.00;99.90;;;;;;5087562;28;20040;-76
2022/12/28 02:42:49;;;;;;;41.65;29.00;;;12.00;99.90;;;;;;5075216;28;20041;-76
2022/12/28 02:51:39;;;;;;;39.53;20.88;;;11.90;99.90;;;;;;5089110;28;20043;-76
2022/12/28 02:57:27;;;;;;;15.77;11.63;;;11.80;99.90;;;;;;5069070;28;20133;-76
2022/12/28 02:59:57;;;;;;;18.20;12.07;;;11.70;99.90;;;;;;5070697;28;20826;-76
2022/12/28 03:02:28;;;;;;;15.27;10.50;;;11.60;99.90;;;;;;5071314;28;20056;-76
2022/12/28 03:05:01;;;;;;;14.82;9.93;;;11.60;99.90;;;;;;5054026;28;20134;-76
2022/12/28 03:11:03;;;;;;;13.15;10.73;;;11.50;99.90;;;;;;5087772;28;20458;-76
2022/12/28 03:13:42;;;;;;;14.38;10.45;;;11.40;99.90;;;;;;5087568;28;20044;-75
2022/12/28 03:16:18;;;;;;;15.52;10.52;;;11.40;99.90;;;;;;5088069;28;20046;-76
2022/12/28 03:33:09;;;;;;;13.77;10.30;;;11.40;99.90;;;;;;5086441;28;20059;-76
2022/12/28 03:36:01;;;;;;;11.25;9.63;;;11.40;99.90;;;;;;5086476;28;20406;-76
2022/12/28 03:38:34;;;;;;;12.55;8.98;;;11.40;99.90;;;;;;5083664;28;20185;-76
2022/12/28 03:41:11;;;;;;;13.48;10.55;;;11.50;99.90;;;;;;5087579;28;20460;-76
2022/12/28 03:43:54;;;;;;;15.32;9.93;;;11.50;99.90;;;;;;5086954;28;20044;-76
2022/12/28 03:46:40;;;;;;;11.77;9.40;;;11.50;99.90;;;;;;5087216;28;20044;-76
2022/12/28 03:49:08;;;;;;;13.83;9.63;;;11.50;99.90;;;;;;5086836;28;20036;-76
2022/12/28 03:51:36;;;;;;;12.88;9.25;;;11.50;99.90;;;;;;5086654;28;20091;-77
2022/12/28 03:54:15;;;;;;;14.13;10.32;;;11.50;99.90;;;;;;5051612;28;20121;-76
2022/12/28 03:56:47;;;;;;;12.38;9.32;;;11.50;99.90;;;;;;5051474;28;20080;-76
2022/12/28 03:59:17;;;;;;;14.77;9.00;;;11.50;99.90;;;;;;5082956;28;20044;-75
2022/12/28 04:01:49;;;;;;;13.52;9.73;;;11.50;99.90;;;;;;5073382;28;20059;-75
2022/12/28 04:04:17;;;;;;;13.20;9.85;;;11.50;99.90;;;;;;5091223;28;20195;-75
2022/12/28 04:06:47;;;;;;;14.07;10.25;;;11.50;99.90;;;;;;5073517;28;20522;-76
2022/12/28 04:09:15;;;;;;;15.70;9.77;;;11.50;99.90;;;;;;5073133;28;20486;-76
2022/12/28 04:11:43;;;;;;;16.63;9.63;;;11.50;99.90;;;;;;5073118;28;20534;-77
2022/12/28 04:14:18;;;;;;;15.27;10.45;;;11.50;99.90;;;;;;5090799;28;20723;-77
2022/12/28 04:16:47;;;;;;;13.63;9.82;;;11.50;99.90;;;;;;5090799;28;20564;-77
2022/12/28 04:19:16;;;;;;;10.90;8.27;;;11.40;99.90;;;;;;5090909;28;20059;-76
2022/12/28 04:21:45;;;;;;;12.65;8.10;;;11.40;99.90;;;;;;5073637;28;20052;-77
2022/12/28 04:24:12;;;;;;;14.77;9.30;;;11.40;99.90;;;;;;5074318;28;20538;-77
2022/12/28 04:26:40;;;;;;;11.40;8.23;;;11.40;99.90;;;;;;5091813;28;20650;-76
2022/12/28 04:29:09;;;;;;;13.02;8.27;;;11.40;99.90;;;;;;5073902;28;20067;-76
2022/12/28 04:31:41;;;;;;;11.55;8.45;;;11.30;99.90;;;;;;5072824;28;20123;-77
2022/12/28 04:34:12;;;;;;;9.40;6.75;;;11.30;99.90;;;;;;5090498;28;20086;-77
2022/12/28 04:36:46;;;;;;;11.07;8.52;;;11.20;99.90;;;;;;5089821;28;20075;-76
2022/12/28 04:39:17;;;;;;;10.98;7.00;;;11.20;99.90;;;;;;5091437;28;20048;-77
2022/12/28 04:41:45;;;;;;;11.15;7.63;;;11.00;99.90;;;;;;5072865;28;20035;-77
2022/12/28 04:44:12;;;;;;;9.85;7.07;;;11.00;99.90;;;;;;5089730;28;20040;-77
2022/12/28 04:46:40;;;;;;;12.98;7.97;;;11.00;99.90;;;;;;5090299;28;20036;-77
2022/12/28 04:49:07;;;;;;;18.50;8.80;;;11.00;99.90;;;;;;5090117;28;20151;-76
2022/12/28 04:51:35;;;;;;;12.55;8.88;;;10.90;99.90;;;;;;5091351;28;20040;-76
2022/12/28 04:54:03;;;;;;;16.05;9.60;;;10.90;99.90;;;;;;5091339;28;20044;-77
2022/12/28 04:56:30;;;;;;;88.05;13.15;;;10.90;99.90;;;;;;5090674;28;20055;-76
2022/12/28 04:58:59;;;;;;;19.73;7.13;;;10.80;99.90;;;;;;5056459;28;20048;-76
2022/12/28 05:01:27;;;;;;;8.95;5.85;;;10.80;99.90;;;;;;5091003;28;20063;-76
2022/12/28 05:03:55;;;;;;;9.43;5.47;;;10.80;99.90;;;;;;5090322;28;20172;-77
2022/12/28 05:06:26;;;;;;;8.68;5.93;;;10.80;99.90;;;;;;5089674;28;20044;-76
2022/12/28 05:08:55;;;;;;;8.40;5.18;;;10.90;99.90;;;;;;5089436;28;20060;-76
2022/12/28 05:11:26;;;;;;;48.83;11.23;;;10.90;99.90;;;;;;5073381;28;20048;-76
2022/12/28 05:13:55;;;;;;;15.07;8.25;;;10.90;99.90;;;;;;5090423;28;20052;-77
2022/12/28 05:16:25;;;;;;;13.20;7.32;;;10.80;99.90;;;;;;5090728;28;20071;-77
2022/12/28 05:18:53;;;;;;;9.70;6.35;;;10.80;99.90;;;;;;5073410;28;20040;-77
2022/12/28 05:21:23;;;;;;;20.80;6.00;;;10.80;99.90;;;;;;5090455;28;20036;-77
2022/12/28 05:23:52;;;;;;;37.75;8.50;;;10.90;99.90;;;;;;5089718;28;20505;-77
2022/12/28 05:26:22;;;;;;;28.13;9.70;;;10.80;99.90;;;;;;5088967;28;20458;-77
2022/12/28 05:28:49;;;;;;;14.13;8.07;;;10.70;99.90;;;;;;5090161;28;20090;-77
2022/12/28 05:31:19;;;;;;;11.73;6.68;;;10.70;99.90;;;;;;5090608;28;20050;-77
2022/12/28 05:33:48;;;;;;;8.13;5.53;;;10.60;99.90;;;;;;5088875;28;20048;-77
2022/12/28 05:36:17;;;;;;;17.70;7.15;;;10.60;99.90;;;;;;5088949;28;20101;-77
2022/12/28 05:38:45;;;;;;;15.20;5.97;;;10.60;99.90;;;;;;5090733;28;20044;-77
2022/12/28 05:41:18;;;;;;;8.77;5.80;;;10.60;99.90;;;;;;5071958;28;20444;-77
2022/12/28 05:43:47;;;;;;;21.33;9.88;;;10.60;99.90;;;;;;5090228;28;20048;-77
2022/12/28 05:46:20;;;;;;;60.53;17.25;;;10.60;99.90;;;;;;5090282;28;20189;-77
2022/12/28 05:48:48;;;;;;;79.60;22.08;;;10.50;99.90;;;;;;5083881;28;20564;-75
2022/12/28 05:51:18;;;;;;;59.10;20.10;;;10.50;99.90;;;;;;5088685;28;20048;-76
2022/12/28 05:53:46;;;;;;;43.30;11.88;;;10.40;99.90;;;;;;5071775;28;20224;-76
2022/12/28 05:56:19;;;;;;;12.80;6.65;;;10.30;99.90;;;;;;5088233;28;20398;-76
2022/12/28 05:58:53;;;;;;;29.80;10.18;;;10.10;99.90;;;;;;5089666;28;20055;-76
2022/12/28 06:01:24;;;;;;;29.33;11.82;;;9.90;99.90;;;;;;5071164;28;20391;-76
2022/12/28 06:03:57;;;;;;;20.25;9.80;;;9.80;99.90;;;;;;5089107;28;20068;-76
2022/12/28 06:06:25;;;;;;;26.35;9.07;;;9.70;99.90;;;;;;5074521;28;20054;-76
2022/12/28 06:08:53;;;;;;;22.20;7.40;;;9.50;99.90;;;;;;5081411;28;20101;-76
2022/12/28 06:11:24;;;;;;;17.02;7.93;;;9.60;99.90;;;;;;5071491;28;20366;-76
2022/12/28 06:13:51;;;;;;;21.60;8.38;;;9.40;99.90;;;;;;5088239;28;20036;-76
2022/12/28 06:16:22;;;;;;;18.17;7.63;;;9.30;99.90;;;;;;5088172;28;20066;-76
2022/12/28 06:18:53;;;;;;;9.38;6.70;;;9.30;99.90;;;;;;5088576;28;20040;-76
2022/12/28 06:21:26;;;;;;;10.80;6.65;;;9.20;99.90;;;;;;5087877;28;20466;-76
2022/12/28 06:23:58;;;;;;;8.27;6.18;;;9.20;99.90;;;;;;5087957;28;20147;-76
2022/12/28 06:26:28;;;;;;;9.00;6.50;;;9.10;99.90;;;;;;5071326;28;20405;-76
2022/12/28 06:28:56;;;;;;;10.45;6.63;;;9.00;99.90;;;;;;5089659;28;20052;-77
2022/12/28 06:31:26;;;;;;;10.95;8.15;;;9.00;99.90;;;;;;5088133;28;20085;-76
2022/12/28 06:33:56;;;;;;;9.63;6.88;;;9.10;99.90;;;;;;5087757;28;20356;-76
2022/12/28 06:36:38;;;;;;;8.68;6.75;;;9.40;99.90;;;;;;5088379;28;20070;-76
2022/12/28 06:39:08;;;;;;;9.70;6.45;;;9.60;99.90;;;;;;5088002;28;20506;-76
2022/12/28 06:41:36;;;;;;;9.90;7.38;;;10.00;99.90;;;;;;5087813;28;20044;-76
2022/12/28 06:44:12;;;;;;;11.48;7.90;;;10.20;99.90;;;;;;5070871;28;20143;-77
2022/12/28 06:46:40;;;;;;;8.73;7.38;;;10.20;99.90;;;;;;5089526;28;20519;-76
2022/12/28 06:49:08;;;;;;;9.20;7.18;;;10.20;99.90;;;;;;5071195;28;20062;-76
2022/12/28 06:51:40;;;;;;;11.70;7.57;;;10.30;99.90;;;;;;5070800;28;20048;-76
2022/12/28 06:54:09;;;;;;;11.02;8.43;;;10.60;99.90;;;;;;5088834;28;20131;-75
2022/12/28 06:56:37;;;;;;;15.43;10.27;;;10.70;99.90;;;;;;5087619;28;20060;-76
2022/12/28 06:59:05;;;;;;;12.40;8.50;;;11.20;99.90;;;;;;5086969;28;20051;-77
2022/12/28 07:01:35;;;;;;;12.68;7.82;;;11.10;99.90;;;;;;5104400;28;20051;-76
2022/12/28 07:04:05;;;;;;;12.32;7.22;;;11.20;99.90;;;;;;5101775;28;20447;-76
2022/12/28 07:06:39;;;;;;;9.90;7.18;;;10.70;99.90;;;;;;5094236;28;20044;-76
2022/12/28 07:09:12;;;;;;;12.70;7.90;;;10.40;99.90;;;;;;5094965;28;20114;-76
2022/12/28 07:11:40;;;;;;;13.50;9.48;;;10.50;99.90;;;;;;5086892;28;20513;-77
2022/12/28 07:14:08;;;;;;;13.73;8.88;;;10.80;99.90;;;;;;5071015;28;20138;-76
2022/12/28 07:16:35;;;;;;;17.02;10.38;;;11.10;99.90;;;;;;5087653;28;20051;-77
2022/12/28 07:19:01;;;;;;;13.48;9.15;;;11.50;99.90;;;;;;5088940;28;20028;-75
2022/12/28 07:21:34;;;;;;;10.05;7.53;;;12.20;99.90;;;;;;5088959;28;20068;-75
2022/12/28 07:24:03;;;;;;;9.98;8.13;;;12.90;99.90;;;;;;5087134;28;20071;-74
2022/12/28 07:26:32;;;;;;;9.57;6.82;;;13.20;99.90;;;;;;5089084;28;20054;-73
2022/12/28 07:29:02;;;;;;;10.88;7.70;;;13.60;99.90;;;;;;5087496;28;20600;-74
2022/12/28 07:31:33;;;;;;;10.18;7.25;;;14.20;99.90;;;;;;5089959;28;20046;-74
2022/12/28 07:34:03;;;;;;;10.63;7.65;;;14.70;99.90;;;;;;5074087;28;20052;-73
2022/12/28 07:36:32;;;;;;;8.77;6.20;;;15.30;99.90;;;;;;5091412;28;20048;-73
2022/12/28 07:38:59;;;;;;;11.73;7.75;;;16.20;99.90;;;;;;5091438;28;20511;-73
2022/12/28 07:41:31;;;;;;;9.05;7.28;;;16.40;99.90;;;;;;5057553;28;20074;-73
2022/12/28 07:43:59;;;;;;;8.93;6.18;;;16.70;99.90;;;;;;5074601;28;20048;-72
2022/12/28 07:46:29;;;;;;;9.10;6.30;;;16.10;99.90;;;;;;5091197;28;20066;-72
2022/12/28 07:48:57;;;;;;;9.40;7.07;;;16.00;99.90;;;;;;5090436;28;20078;-73
2022/12/28 07:51:34;;;;;;;11.18;7.53;;;16.50;99.90;;;;;;5074025;28;20110;-74
2022/12/28 07:54:02;;;;;;;11.40;8.15;;;17.40;99.90;;;;;;5090460;28;20040;-73
2022/12/28 07:56:31;;;;;;;10.77;8.05;;;18.10;99.90;;;;;;5073546;28;20059;-73
2022/12/28 07:58:59;;;;;;;13.38;8.30;;;18.50;99.90;;;;;;5087909;28;20089;-74
2022/12/28 08:01:30;;;;;;;11.85;7.68;;;18.80;99.90;;;;;;5073826;28;20056;-74
2022/12/28 08:04:00;;;;;;;10.20;7.38;;;18.80;99.90;;;;;;5090952;28;20056;-75
2022/12/28 08:06:32;;;;;;;22.58;15.73;;;18.80;99.90;;;;;;5088049;28;20033;-74
2022/12/28 08:09:00;;;;;;;17.52;13.23;;;18.60;99.90;;;;;;5082906;28;20056;-75
2022/12/28 08:11:30;;;;;;;13.90;10.55;;;18.60;99.90;;;;;;5090106;28;20180;-74
2022/12/28 08:14:00;;;;;;;11.13;8.93;;;18.50;99.90;;;;;;5073424;28;20040;-74
2022/12/28 08:16:30;;;;;;;9.60;7.85;;;18.50;99.90;;;;;;5089979;28;20051;-74
2022/12/28 08:18:58;;;;;;;11.18;8.73;;;18.50;99.90;;;;;;5090558;28;20482;-74
2022/12/28 08:21:28;;;;;;;12.18;8.52;;;18.50;99.90;;;;;;5073253;28;20044;-74
2022/12/28 08:23:56;;;;;;;12.10;9.75;;;18.30;99.90;;;;;;5073063;28;20056;-73
2022/12/28 08:26:27;;;;;;;13.07;9.45;;;18.20;99.90;;;;;;5090328;28;20101;-74
2022/12/28 08:28:57;;;;;;;11.43;8.02;;;18.10;99.90;;;;;;5090026;28;20043;-73
2022/12/28 08:31:28;;;;;;;15.07;9.88;;;17.90;99.90;;;;;;5090112;28;20048;-74
2022/12/28 08:33:57;;;;;;;20.90;13.77;;;17.70;99.90;;;;;;5089898;28;20462;-74
2022/12/28 08:36:25;;;;;;;19.23;14.25;;;17.50;99.90;;;;;;5089829;28;20093;-74
2022/12/28 08:38:53;;;;;;;20.48;14.02;;;17.20;99.90;;;;;;5072975;28;20048;-73
2022/12/28 08:41:23;;;;;;;21.58;14.80;;;17.00;99.90;;;;;;5091473;28;20147;-73
2022/12/28 08:43:52;;;;;;;23.77;14.13;;;16.70;99.90;;;;;;5079286;28;20041;-74
2022/12/28 08:46:29;;;;;;;21.55;14.40;;;16.40;99.90;;;;;;5089239;28;20052;-74
2022/12/28 08:48:58;;;;;;;20.70;14.07;;;16.10;99.90;;;;;;5056521;28;20056;-73
2022/12/28 08:51:38;;;;;;;21.85;14.05;;;15.90;99.90;;;;;;5090889;28;20048;-74
2022/12/28 08:54:07;;;;;;;18.70;11.70;;;15.70;99.90;;;;;;5089350;28;20048;-73
2022/12/28 08:56:37;;;;;;;18.90;11.55;;;15.60;99.90;;;;;;5090599;28;20055;-73
2022/12/28 08:59:05;;;;;;;15.10;9.93;;;15.50;99.90;;;;;;5089001;28;20347;-75
2022/12/28 09:01:35;;;;;;;11.85;7.90;;;15.50;99.90;;;;;;5072223;28;20652;-74
2022/12/28 09:04:14;;;;;;;9.77;6.68;;;15.40;99.90;;;;;;5072940;28;20063;-74
2022/12/28 09:06:42;;;;;;;14.82;8.80;;;15.40;99.90;;;;;;5089404;28;20086;-73
2022/12/28 09:09:13;;;;;;;13.45;8.57;;;15.30;99.90;;;;;;5072680;28;20062;-74
2022/12/28 09:11:41;;;;;;;16.08;9.50;;;15.40;99.90;;;;;;5089422;28;20044;-73
2022/12/28 09:14:10;;;;;;;19.67;11.80;;;15.40;99.90;;;;;;5072294;28;20075;-74
2022/12/28 09:16:42;;;;;;;17.45;11.27;;;15.40;99.90;;;;;;5089365;28;20397;-73
2022/12/28 09:19:13;;;;;;;24.60;13.70;;;15.30;99.90;;;;;;5072545;28;20055;-74
2022/12/28 09:21:40;;;;;;;21.38;13.77;;;15.40;99.90;;;;;;5090655;28;20540;-74
2022/12/28 09:24:08;;;;;;;24.67;14.23;;;15.40;99.90;;;;;;5089997;28;20040;-73
2022/12/28 09:26:37;;;;;;;24.95;14.73;;;15.50;99.90;;;;;;5089138;28;20086;-75
2022/12/28 09:29:09;;;;;;;23.70;14.77;;;15.70;99.90;;;;;;5055319;28;20129;-74
2022/12/28 09:31:39;;;;;;;26.52;15.45;;;16.00;99.90;;;;;;5090036;28;20044;-73
2022/12/28 09:34:10;;;;;;;36.33;23.52;;;16.40;99.90;;;;;;5089906;28;20039;-74
2022/12/28 09:36:58;;;;;;;24.83;17.27;;;16.70;99.90;;;;;;5072591;28;20076;-73
2022/12/28 09:39:26;;;;;;;19.80;14.63;;;17.20;99.90;;;;;;5090531;28;20369;-73
2022/12/28 09:42:01;;;;;;;18.92;13.77;;;17.40;99.90;;;;;;5090124;28;20048;-74
2022/12/28 09:44:48;;;;;;;22.40;13.75;;;17.70;99.90;;;;;;5088281;28;20122;-74
2022/12/28 09:47:16;;;;;;;22.13;15.65;;;18.10;99.90;;;;;;5089789;28;20040;-74
2022/12/28 09:50:14;;;;;;;24.35;15.40;;;18.30;99.90;;;;;;5090071;28;20052;-74
2022/12/28 09:53:04;;;;;;;19.38;14.30;;;18.60;99.90;;;;;;5089784;28;20040;-73
2022/12/28 09:55:34;;;;;;;20.35;14.18;;;18.80;99.90;;;;;;5088496;28;20071;-73
2022/12/28 09:58:04;;;;;;;21.33;14.55;;;18.90;99.90;;;;;;5086344;28;20071;-74
2022/12/28 10:00:37;;;;;;;22.48;15.43;;;18.90;99.90;;;;;;5072257;28;20055;-74
2022/12/28 10:03:34;;;;;;;19.23;13.60;;;19.00;99.90;;;;;;5087553;28;20044;-75
2022/12/28 10:06:08;;;;;;;19.02;14.55;;;19.00;99.90;;;;;;5061875;28;20075;-75
2022/12/28 10:08:41;;;;;;;22.10;14.38;;;19.20;99.90;;;;;;5074439;28;20048;-75
2022/12/28 10:11:14;;;;;;;20.15;13.05;;;19.30;99.90;;;;;;5088496;28;20119;-76
2022/12/28 10:13:41;;;;;;;20.73;13.40;;;19.40;99.90;;;;;;5087998;28;20047;-75
2022/12/28 10:16:21;;;;;;;20.35;16.52;;;19.40;99.90;;;;;;5088354;28;20123;-76
2022/12/28 10:18:49;;;;;;;21.40;14.68;;;19.50;99.90;;;;;;5087955;28;20055;-76
2022/12/28 10:21:19;;;;;;;19.23;14.15;;;19.50;99.90;;;;;;5087723;28;20502;-76
2022/12/28 10:23:51;;;;;;;21.00;15.90;;;19.50;99.90;;;;;;5088789;28;20051;-76
2022/12/28 10:26:41;;;;;;;22.30;15.10;;;19.60;99.90;;;;;;5073619;28;20047;-76
2022/12/28 10:29:18;;;;;;;20.65;15.90;;;19.60;99.90;;;;;;5074871;28;20144;-76
2022/12/28 10:32:03;;;;;;;20.65;13.57;;;19.60;99.90;;;;;;5050605;28;20102;-76
2022/12/28 10:34:33;;;;;;;21.13;13.52;;;19.60;99.90;;;;;;5087088;28;20063;-75
2022/12/28 10:37:14;;;;;;;18.33;12.93;;;19.70;99.90;;;;;;5087810;28;20055;-76
2022/12/28 10:39:58;;;;;;;20.95;13.20;;;19.70;99.90;;;;;;5087610;28;20055;-75
2022/12/28 10:42:35;;;;;;;20.77;13.23;;;19.60;99.90;;;;;;5070904;28;20044;-73
2022/12/28 10:45:16;;;;;;;21.75;13.13;;;19.60;99.90;;;;;;5070415;28;20048;-75
2022/12/28 10:47:51;;;;;;;20.65;13.25;;;19.60;99.90;;;;;;5070708;28;20041;-73
2022/12/28 10:50:54;;;;;;;25.30;14.35;;;19.60;99.90;;;;;;5087397;28;20093;-74
2022/12/28 10:53:43;;;;;;;20.17;13.52;;;19.60;99.90;;;;;;5088523;28;20036;-75
2022/12/28 10:56:11;;;;;;;24.98;14.98;;;19.60;99.90;;;;;;5088800;28;20032;-76
2022/12/28 10:58:47;;;;;;;20.23;13.20;;;19.60;99.90;;;;;;5070531;28;20048;-76
2022/12/28 11:01:29;;;;;;;19.77;14.18;;;19.70;99.90;;;;;;5088899;28;20055;-76
2022/12/28 11:04:15;;;;;;;19.38;13.82;;;19.80;99.90;;;;;;5088293;28;20051;-76
2022/12/28 11:07:01;;;;;;;16.58;13.13;;;19.80;99.90;;;;;;5069836;28;20048;-76
2022/12/28 11:09:34;;;;;;;20.70;13.77;;;19.80;99.90;;;;;;5087241;28;20039;-76
2022/12/28 11:12:23;;;;;;;21.80;14.13;;;19.70;99.90;;;;;;5086423;28;20044;-75
2022/12/28 11:14:51;;;;;;;17.10;11.93;;;19.60;99.90;;;;;;5067185;28;20051;-77
2022/12/28 11:17:28;;;;;;;16.10;11.23;;;19.40;99.90;;;;;;5068920;28;20358;-77
2022/12/28 11:20:06;;;;;;;15.65;10.98;;;19.20;99.90;;;;;;5083051;28;20075;-76
2022/12/28 11:22:36;;;;;;;14.90;10.43;;;19.20;99.90;;;;;;5055087;28;20058;-77
2022/12/28 11:25:06;;;;;;;17.77;11.20;;;19.00;99.90;;;;;;5088222;28;20035;-76
2022/12/28 11:27:34;;;;;;;15.63;11.57;;;18.70;99.90;;;;;;5087842;28;20048;-76
2022/12/28 11:30:03;;;;;;;15.57;10.77;;;18.50;99.90;;;;;;5087336;28;20052;-77
2022/12/28 11:32:41;;;;;;;16.10;10.35;;;18.30;99.90;;;;;;5071067;28;20118;-78
2022/12/28 11:35:35;;;;;;;16.20;11.48;;;18.10;99.90;;;;;;5087802;28;20803;-77
2022/12/28 11:38:06;;;;;;;13.38;10.07;;;18.00;99.90;;;;;;5066724;28;20517;-78
2022/12/28 11:40:42;;;;;;;15.20;8.80;;;18.20;99.90;;;;;;5087592;28;20549;-78
2022/12/28 11:43:25;;;;;;;15.20;9.38;;;18.40;99.90;;;;;;5053708;28;20054;-77
2022/12/28 11:46:02;;;;;;;13.13;8.40;;;18.60;99.90;;;;;;5086474;28;20105;-77
2022/12/28 11:48:42;;;;;;;13.48;9.18;;;18.80;99.90;;;;;;5087377;28;20044;-77
2022/12/28 11:51:30;;;;;;;12.38;8.07;;;19.00;99.90;;;;;;5069116;28;20044;-77
2022/12/28 11:54:25;;;;;;;12.88;8.07;;;19.10;99.90;;;;;;5066572;28;20051;-77
2022/12/28 11:56:57;;;;;;;12.32;8.90;;;19.10;99.90;;;;;;5079241;28;20060;-77
2022/12/28 11:59:29;;;;;;;11.40;7.85;;;19.20;99.90;;;;;;5081569;28;20501;-78
2022/12/28 12:01:59;;;;;;;12.95;8.52;;;19.20;99.90;;;;;;5087969;28;20052;-77
2022/12/28 12:04:31;;;;;;;10.95;7.70;;;19.30;99.90;;;;;;5070184;28;20097;-76
2022/12/28 12:07:02;;;;;;;12.02;8.70;;;19.30;99.90;;;;;;5086354;28;20047;-77
2022/12/28 12:09:37;;;;;;;14.50;9.30;;;19.20;99.90;;;;;;5052910;28;20402;-77
2022/12/28 12:12:13;;;;;;;11.63;9.57;;;19.00;99.90;;;;;;5087296;28;20058;-76
2022/12/28 12:14:51;;;;;;;16.27;10.13;;;18.90;99.90;;;;;;5070097;28;20048;-77
2022/12/28 12:17:41;;;;;;;16.75;9.10;;;18.90;99.90;;;;;;5069170;28;20063;-77
2022/12/28 12:20:46;;;;;;;10.23;7.45;;;18.90;99.90;;;;;;5089757;28;20047;-77
2022/12/28 12:23:45;;;;;;;9.35;6.53;;;19.00;99.90;;;;;;5090847;28;20050;-77
2022/12/28 12:26:34;;;;;;;15.82;7.32;;;19.20;99.90;;;;;;5090724;28;20550;-77
2022/12/28 12:29:13;;;;;;;9.70;7.03;;;19.30;99.90;;;;;;5089618;28;20055;-78
2022/12/28 12:32:13;;;;;;;14.57;6.97;;;19.40;99.90;;;;;;5070825;28;20040;-77
2022/12/28 12:34:46;;;;;;;10.15;7.45;;;19.50;99.90;;;;;;5067270;28;20064;-77
2022/12/28 12:37:42;;;;;;;10.57;7.50;;;19.30;99.90;;;;;;5084887;28;20449;-77
2022/12/28 12:40:31;;;;;;;15.93;8.93;;;19.10;99.90;;;;;;5090393;28;20040;-77
2022/12/28 12:43:29;;;;;;;11.93;7.68;;;18.90;99.90;;;;;;5090609;28;20048;-77
2022/12/28 12:46:28;;;;;;;14.00;9.57;;;18.60;99.90;;;;;;5089244;28;20040;-77
2022/12/28 12:49:04;;;;;;;13.90;10.13;;;18.40;99.90;;;;;;5090212;28;20040;-77
2022/12/28 12:52:16;;;;;;;13.52;9.60;;;18.20;99.90;;;;;;5072214;28;20067;-77
2022/12/28 12:55:02;;;;;;;12.95;8.52;;;18.00;99.90;;;;;;5089142;28;20113;-78
2022/12/28 12:57:41;;;;;;;14.00;10.30;;;17.80;99.90;;;;;;5088475;28;20105;-76
2022/12/28 13:00:15;;;;;;;16.63;9.50;;;17.80;99.90;;;;;;5089330;28;20071;-76
2022/12/28 13:03:04;;;;;;;12.70;9.38;;;17.70;99.90;;;;;;5072262;28;20048;-77
2022/12/28 13:05:32;;;;;;;14.10;8.40;;;17.60;99.90;;;;;;5090470;28;20109;-77
2022/12/28 13:08:00;;;;;;;10.40;6.75;;;17.60;99.90;;;;;;5069553;28;20132;-77
2022/12/28 13:10:32;;;;;;;11.77;7.82;;;17.60;99.90;;;;;;5084874;28;20115;-78
2022/12/28 13:13:02;;;;;;;14.10;9.20;;;17.50;99.90;;;;;;5090425;28;20127;-76
2022/12/28 13:15:30;;;;;;;9.02;6.82;;;17.50;99.90;;;;;;5072401;28;20101;-77
2022/12/28 13:18:27;;;;;;;11.05;7.43;;;17.50;99.90;;;;;;5089913;28;20036;-76
2022/12/28 13:21:22;;;;;;;13.90;8.68;;;17.40;99.90;;;;;;5084030;28;20052;-77
2022/12/28 13:23:50;;;;;;;11.07;7.70;;;17.30;99.90;;;;;;5088253;28;20461;-76
2022/12/28 13:26:26;;;;;;;11.88;8.07;;;17.20;99.90;;;;;;5088683;28;20062;-76
2022/12/28 13:28:59;;;;;;;10.40;7.88;;;17.20;99.90;;;;;;5089570;28;20048;-76
2022/12/28 13:31:37;;;;;;;10.82;7.35;;;17.20;99.90;;;;;;5071777;28;20036;-76
2022/12/28 13:34:25;;;;;;;12.93;8.85;;;17.10;99.90;;;;;;5071683;28;20053;-76